Time;durP1;ratioP1;P1;durP2;ratioP2;P2;SDS_P1;SDS_P2;PMS_P1;PMS_P2;Temp;Humidity;BMP_temperature;BMP_pressure;BME280_temperature;BME280_humidity;BME280_pressure;Samples;Min_cycle;Max_cycle;Signal;HPM_P1;HPM_P2
2023/07/31 00:01:13;;;;;;;29.48;8.30;;;;;;;15.72;100.00;100890.56;5046821;28;20036;-79
2023/07/31 00:03:39;;;;;;;24.17;8.80;;;;;;;15.75;100.00;100893.97;5043691;28;20064;-79
2023/07/31 00:06:04;;;;;;;24.25;8.00;;;;;;;15.73;100.00;100903.09;5044336;28;20025;-79
2023/07/31 00:08:29;;;;;;;23.70;6.95;;;;;;;15.72;100.00;100895.13;5037857;28;20052;-79
2023/07/31 00:10:54;;;;;;;22.55;7.28;;;;;;;15.71;100.00;100899.69;5044303;28;20026;-80
2023/07/31 00:13:20;;;;;;;23.98;7.18;;;;;;;15.71;100.00;100897.00;5044847;28;20113;-79
2023/07/31 00:15:45;;;;;;;28.35;7.72;;;;;;;15.69;100.00;100890.84;5043398;28;20057;-79
2023/07/31 00:18:11;;;;;;;25.77;7.32;;;;;;;15.71;100.00;100898.81;5043185;28;20022;-79
2023/07/31 00:20:36;;;;;;;20.90;6.97;;;;;;;15.71;100.00;100888.84;5046755;28;20018;-79
2023/07/31 00:23:01;;;;;;;19.40;6.65;;;;;;;15.72;100.00;100893.28;5041301;28;20033;-79
2023/07/31 00:25:26;;;;;;;22.27;6.40;;;;;;;15.72;100.00;100897.84;5018458;28;20034;-80
2023/07/31 00:27:52;;;;;;;25.92;7.65;;;;;;;15.72;100.00;100890.56;5036294;28;20452;-79
2023/07/31 00:30:17;;;;;;;21.58;5.72;;;;;;;15.72;100.00;100890.56;5045616;28;20026;-80
2023/07/31 00:32:43;;;;;;;23.55;7.38;;;;;;;15.72;100.00;100895.13;5049383;28;20077;-80
2023/07/31 00:35:08;;;;;;;26.48;7.05;;;;;;;15.71;100.00;100894.28;5049801;28;20021;-80
2023/07/31 00:37:33;;;;;;;22.90;7.43;;;;;;;15.72;100.00;100882.44;5076571;23;20059;-77
2023/07/31 00:39:59;;;;;;;24.23;7.32;;;;;;;15.71;100.00;100888.84;5057555;28;20102;-76
2023/07/31 00:42:24;;;;;;;24.23;7.50;;;;;;;15.73;100.00;100883.28;5057143;28;20033;-77
2023/07/31 00:44:50;;;;;;;21.00;7.55;;;;;;;15.73;100.00;100886.00;5059536;28;20025;-76
2023/07/31 00:47:15;;;;;;;24.23;6.95;;;;;;;15.73;100.00;100884.13;5058222;28;20037;-77
2023/07/31 00:49:41;;;;;;;26.95;6.63;;;;;;;15.73;100.00;100886.84;5060876;28;20051;-76
2023/07/31 00:52:07;;;;;;;25.30;8.07;;;;;;;15.72;100.00;100885.16;5060975;28;20365;-77
2023/07/31 00:54:33;;;;;;;29.50;7.43;;;;;;;15.73;100.00;100878.72;5060297;28;20043;-76
2023/07/31 00:57:02;;;;;;;26.60;6.88;;;;;;;15.75;100.00;100880.44;5056603;28;20021;-76
2023/07/31 00:59:28;;;;;;;22.15;7.38;;;;;;;15.74;100.00;100882.31;5058494;28;20047;-75
2023/07/31 01:01:54;;;;;;;21.45;6.60;;;;;;;15.74;100.00;100876.88;5065480;28;20033;-77
2023/07/31 01:04:21;;;;;;;22.08;6.70;;;;;;;15.76;100.00;100884.88;5059895;28;20089;-77
2023/07/31 01:07:00;;;;;;;21.67;6.32;;;;;;;15.75;100.00;100872.31;5060610;28;20100;-78
2023/07/31 01:09:47;;;;;;;22.50;6.18;;;;;;;15.76;100.00;100874.03;5064464;28;20101;-76
2023/07/31 01:12:17;;;;;;;23.90;6.70;;;;;;;15.74;100.00;100874.19;5037577;28;20032;-76
2023/07/31 01:15:00;;;;;;;20.73;5.90;;;;;;;15.76;100.00;100874.03;5063331;28;20009;-76
2023/07/31 01:17:26;;;;;;;25.70;6.43;;;;;;;15.73;100.00;100867.88;5051102;28;20052;-76
2023/07/31 01:19:52;;;;;;;23.88;6.68;;;;;;;15.73;100.00;100873.31;5057817;28;20037;-76
2023/07/31 01:22:38;;;;;;;23.27;5.95;;;;;;;15.71;100.00;100869.91;5050876;28;20095;-78
2023/07/31 01:25:35;;;;;;;18.75;6.30;;;;;;;15.73;100.00;100865.16;5057300;28;20033;-75
2023/07/31 01:28:09;;;;;;;21.63;5.78;;;;;;;15.73;100.00;100864.31;5059272;28;20100;-78
2023/07/31 01:30:48;;;;;;;20.75;5.70;;;;;;;15.73;100.00;100869.75;5056415;28;20108;-75
2023/07/31 01:33:15;;;;;;;19.98;5.72;;;;;;;15.71;100.00;100869.03;5056785;28;20025;-78
2023/07/31 01:35:46;;;;;;;22.17;6.18;;;;;;;15.69;100.00;100871.88;5059993;28;20032;-77
2023/07/31 01:38:12;;;;;;;19.60;6.07;;;;;;;15.68;100.00;100872.03;5058392;28;20039;-78
2023/07/31 01:40:37;;;;;;;17.23;5.32;;;;;;;15.66;100.00;100858.63;5057458;28;20123;-76
2023/07/31 01:43:03;;;;;;;24.17;5.93;;;;;;;15.67;100.00;100867.63;5059998;28;20032;-76
2023/07/31 01:45:28;;;;;;;22.98;5.22;;;;;;;15.67;100.00;100867.63;5075067;23;20565;-82
2023/07/31 01:47:53;;;;;;;22.55;6.90;;;;;;;15.67;100.00;100870.34;5080314;28;20090;-82
2023/07/31 01:50:19;;;;;;;21.95;5.90;;;;;;;15.64;100.00;100866.06;5070293;28;20491;-82
2023/07/31 01:52:44;;;;;;;25.45;5.55;;;;;;;15.64;100.00;100868.75;5083221;28;20126;-82
2023/07/31 01:55:09;;;;;;;23.40;6.28;;;;;;;15.61;100.00;100863.63;5083426;28;20066;-82
2023/07/31 01:57:36;;;;;;;22.35;6.43;;;;;;;15.60;100.00;100853.78;5082053;28;20119;-82
2023/07/31 02:00:02;;;;;;;22.05;6.63;;;;;;;15.61;100.00;100863.63;5081639;28;20028;-82
2023/07/31 02:02:27;;;;;;;21.02;5.90;;;;;;;15.61;100.00;100851.94;5083666;28;20374;-82
2023/07/31 02:04:53;;;;;;;22.48;6.45;;;;;;;15.59;100.00;100852.06;5090294;28;20028;-83
2023/07/31 02:07:18;;;;;;;24.25;6.88;;;;;;;15.60;100.00;100844.81;5097439;28;20020;-82
2023/07/31 02:09:43;;;;;;;20.00;5.40;;;;;;;15.60;100.00;100837.53;5084197;28;20035;-82
2023/07/31 02:12:09;;;;;;;22.63;6.82;;;;;;;15.58;100.00;100839.56;5103627;28;20047;-82
2023/07/31 02:14:34;;;;;;;22.65;6.47;;;;;;;15.59;100.00;100837.69;5103283;28;20040;-82
2023/07/31 02:17:00;;;;;;;20.48;6.10;;;;;;;15.58;100.00;100833.25;5101605;28;20035;-82
2023/07/31 02:19:25;;;;;;;19.52;5.85;;;;;;;15.58;100.00;100828.72;5099905;28;20073;-82
2023/07/31 02:21:51;;;;;;;26.38;7.18;;;;;;;15.58;100.00;100823.28;5108533;28;20088;-83
2023/07/31 02:24:16;;;;;;;26.75;7.13;;;;;;;15.58;100.00;100822.41;5101908;28;20027;-82
2023/07/31 02:26:42;;;;;;;20.75;6.10;;;;;;;15.57;100.00;100823.44;5091627;28;20538;-82
2023/07/31 02:29:08;;;;;;;27.02;7.03;;;;;;;15.58;100.00;100822.41;5086877;28;20043;-82
2023/07/31 02:31:33;;;;;;;25.23;7.45;;;;;;;15.54;100.00;100811.88;5103850;28;20059;-82
2023/07/31 02:33:58;;;;;;;20.15;5.97;;;;;;;15.54;100.00;100819.16;5103864;28;20074;-82
2023/07/31 02:36:24;;;;;;;25.45;6.47;;;;;;;15.54;100.00;100805.63;5095910;28;20024;-82
2023/07/31 02:38:49;;;;;;;25.45;6.35;;;;;;;15.53;100.00;100810.19;5099909;28;20540;-82
2023/07/31 02:41:14;;;;;;;23.92;5.72;;;;;;;15.52;100.00;100805.75;5094066;28;20058;-82
2023/07/31 02:43:40;;;;;;;22.55;6.22;;;;;;;15.52;100.00;100803.06;5106914;28;20076;-82
2023/07/31 02:46:05;;;;;;;21.08;6.40;;;;;;;15.52;100.00;100802.19;5105116;28;20075;-82
2023/07/31 02:48:31;;;;;;;23.40;7.35;;;;;;;15.50;100.00;100809.63;5113938;28;20046;-82
2023/07/31 02:50:56;;;;;;;21.55;6.22;;;;;;;15.49;100.00;100802.47;5113950;28;20092;-80
2023/07/31 02:53:22;;;;;;;21.60;6.70;;;;;;;15.48;100.00;100801.63;5115059;28;20050;-80
2023/07/31 02:55:48;;;;;;;24.13;6.32;;;;;;;15.48;100.00;100804.34;5120324;28;20020;-80
2023/07/31 02:58:13;;;;;;;20.98;5.82;;;;;;;15.49;100.00;100805.19;5117979;28;20028;-80
2023/07/31 03:00:43;;;;;;;28.27;7.88;;;;;;;15.47;100.00;100805.34;5104966;28;20121;-80
2023/07/31 03:03:08;;;;;;;23.15;6.10;;;;;;;15.50;100.00;100804.19;5116522;28;20028;-80
2023/07/31 03:05:33;;;;;;;21.17;6.22;;;;;;;15.50;100.00;100796.06;5110245;28;20062;-80
2023/07/31 03:07:59;;;;;;;23.85;6.47;;;;;;;15.50;100.00;100804.19;5119406;28;20020;-80
2023/07/31 03:10:24;;;;;;;23.27;6.63;;;;;;;15.50;100.00;100804.19;5119433;28;20032;-80
2023/07/31 03:12:49;;;;;;;22.40;6.93;;;;;;;15.51;100.00;100797.78;5113240;28;20049;-80
2023/07/31 03:15:15;;;;;;;24.05;6.00;;;;;;;15.50;100.00;100798.78;5111234;28;20431;-80
2023/07/31 03:17:40;;;;;;;23.88;6.32;;;;;;;15.52;100.00;100799.47;5095044;28;20043;-80
2023/07/31 03:20:06;;;;;;;23.88;5.97;;;;;;;15.51;100.00;100795.94;5102946;28;20032;-80
2023/07/31 03:22:31;;;;;;;22.55;6.65;;;;;;;15.53;100.00;100798.47;5098478;28;20028;-80
2023/07/31 03:24:57;;;;;;;24.40;7.03;;;;;;;15.51;100.00;100795.09;5097118;28;20035;-80
2023/07/31 03:27:22;;;;;;;25.27;6.63;;;;;;;15.51;100.00;100789.66;5116708;28;20371;-80
2023/07/31 03:29:49;;;;;;;19.50;6.50;;;;;;;15.52;100.00;100788.63;5096318;28;20025;-80
2023/07/31 03:32:15;;;;;;;23.55;7.20;;;;;;;15.52;100.00;100786.81;5107409;28;20043;-80
2023/07/31 03:34:40;;;;;;;25.38;5.75;;;;;;;15.53;100.00;100784.94;5119459;28;20039;-80
2023/07/31 03:37:05;;;;;;;19.90;7.00;;;;;;;15.54;100.00;100778.53;5123789;28;20039;-80
2023/07/31 03:39:31;;;;;;;19.40;5.57;;;;;;;15.53;100.00;100771.41;5113228;28;20106;-80
2023/07/31 03:41:56;;;;;;;21.33;6.57;;;;;;;15.55;100.00;100774.84;5122261;28;20028;-80
2023/07/31 03:44:21;;;;;;;25.55;6.78;;;;;;;15.57;100.00;100782.81;5122943;28;20035;-80
2023/07/31 03:46:47;;;;;;;22.95;6.07;;;;;;;15.56;100.00;100771.09;5124461;28;20035;-80
2023/07/31 03:49:12;;;;;;;19.90;5.43;;;;;;;15.57;100.00;100774.69;5123134;28;20031;-80
2023/07/31 03:51:37;;;;;;;24.67;6.65;;;;;;;15.57;100.00;100767.41;5111054;28;20024;-80
2023/07/31 03:54:03;;;;;;;18.48;5.50;;;;;;;15.58;100.00;100760.13;5120398;28;20050;-80
2023/07/31 03:56:28;;;;;;;22.00;6.43;;;;;;;15.60;100.00;100756.28;5109206;28;20031;-80
2023/07/31 03:58:53;;;;;;;21.05;5.80;;;;;;;15.61;100.00;100752.56;5124908;28;20467;-79
2023/07/31 04:01:19;;;;;;;20.90;6.18;;;;;;;15.64;100.00;100757.69;5121625;28;20479;-79
2023/07/31 04:03:44;;;;;;;19.60;5.57;;;;;;;15.64;100.00;100754.97;5117542;28;20005;-79
2023/07/31 04:06:10;;;;;;;20.08;6.78;;;;;;;15.65;100.00;100739.56;5117306;28;20032;-79
2023/07/31 04:08:35;;;;;;;19.80;4.95;;;;;;;15.64;100.00;100733.31;5126744;28;20032;-79
2023/07/31 04:11:01;;;;;;;27.20;6.28;;;;;;;15.67;100.00;100735.72;5110282;28;20024;-79
2023/07/31 04:13:27;;;;;;;20.42;5.82;;;;;;;15.67;100.00;100734.88;5119641;28;20036;-79
2023/07/31 04:15:54;;;;;;;18.42;6.20;;;;;;;15.68;100.00;100729.31;5098211;28;20000;-79
2023/07/31 04:18:19;;;;;;;20.27;5.80;;;;;;;15.71;100.00;100730.84;5108448;28;20042;-79
2023/07/31 04:20:45;;;;;;;20.52;6.72;;;;;;;15.73;100.00;100723.44;5107227;28;20031;-79
2023/07/31 04:23:10;;;;;;;18.98;6.38;;;;;;;15.75;100.00;100718.69;5114751;28;20028;-79
2023/07/31 04:25:35;;;;;;;20.92;6.40;;;;;;;15.76;100.00;100714.16;5112592;28;20051;-79
2023/07/31 04:28:01;;;;;;;24.65;6.25;;;;;;;15.77;100.00;100734.81;5121575;28;20048;-79
2023/07/31 04:30:26;;;;;;;23.75;6.68;;;;;;;15.79;100.00;100727.44;5133542;28;20022;-79
2023/07/31 04:32:51;;;;;;;22.40;5.63;;;;;;;15.81;100.00;100718.16;5129284;28;20027;-79
2023/07/31 04:35:17;;;;;;;20.77;5.97;;;;;;;15.83;100.00;100718.00;5116102;28;20019;-79
2023/07/31 04:37:42;;;;;;;23.75;6.25;;;;;;;15.86;100.00;100713.13;5128896;28;20027;-79
2023/07/31 04:40:08;;;;;;;25.30;7.22;;;;;;;15.87;100.00;100708.53;5120005;28;20020;-79
2023/07/31 04:42:34;;;;;;;22.60;6.97;;;;;;;15.87;100.00;100704.00;5119199;28;20022;-79
2023/07/31 04:44:59;;;;;;;24.70;6.90;;;;;;;15.87;100.00;100698.59;5130716;28;20056;-79
2023/07/31 04:47:25;;;;;;;23.63;7.22;;;;;;;15.88;100.00;100696.72;5134122;28;20065;-79
2023/07/31 04:49:50;;;;;;;22.80;6.53;;;;;;;15.89;100.00;100698.44;5116677;28;20012;-79
2023/07/31 04:52:15;;;;;;;21.80;6.00;;;;;;;15.91;100.00;100696.41;5128622;28;20114;-79
2023/07/31 04:54:40;;;;;;;22.00;6.70;;;;;;;15.92;100.00;100695.41;5114573;28;20054;-79
2023/07/31 04:57:06;;;;;;;19.75;6.07;;;;;;;15.94;100.00;100698.81;5116228;28;20008;-79
2023/07/31 04:59:31;;;;;;;19.17;6.20;;;;;;;15.96;100.00;100688.69;5115942;28;20028;-79
2023/07/31 05:01:57;;;;;;;24.75;6.47;;;;;;;15.98;100.00;100691.25;5117846;28;20004;-79
2023/07/31 05:04:22;;;;;;;19.00;6.22;;;;;;;15.99;100.00;100682.09;5116394;28;20044;-79
2023/07/31 05:06:47;;;;;;;22.75;6.70;;;;;;;15.99;100.00;100680.25;5124017;28;20040;-79
2023/07/31 05:09:13;;;;;;;18.05;6.32;;;;;;;15.99;100.00;100680.25;5114359;28;20102;-80
2023/07/31 05:11:40;;;;;;;22.20;6.80;;;;;;;15.97;100.00;100673.25;5133893;28;20032;-80
2023/07/31 05:14:05;;;;;;;20.67;6.78;;;;;;;15.95;100.00;100673.41;5129339;28;20027;-79
2023/07/31 05:16:30;;;;;;;23.05;7.28;;;;;;;15.95;100.00;100670.72;5122568;28;20016;-79
2023/07/31 05:18:56;;;;;;;23.73;7.43;;;;;;;15.94;100.00;100673.56;5117591;28;20032;-80
2023/07/31 05:21:21;;;;;;;16.95;6.28;;;;;;;15.93;100.00;100670.03;5123851;28;20028;-79
2023/07/31 05:23:47;;;;;;;17.85;5.95;;;;;;;15.95;100.00;100683.41;5117027;28;20039;-79
2023/07/31 05:26:13;;;;;;;18.38;6.03;;;;;;;15.93;100.00;100680.00;5117836;28;20008;-79
2023/07/31 05:28:38;;;;;;;21.20;5.85;;;;;;;15.92;100.00;100673.72;5119408;28;20049;-79
2023/07/31 05:31:04;;;;;;;18.00;5.85;;;;;;;15.92;100.00;100676.44;5125809;28;20020;-79
2023/07/31 05:33:30;;;;;;;17.70;6.15;;;;;;;15.92;100.00;100671.00;5116996;28;20004;-80
2023/07/31 05:35:56;;;;;;;20.40;5.97;;;;;;;15.91;100.00;100674.72;5115845;28;20033;-80
2023/07/31 05:38:21;;;;;;;17.00;4.82;;;;;;;15.90;100.00;100686.56;5126896;28;20020;-80
2023/07/31 05:40:46;;;;;;;20.65;5.78;;;;;;;15.87;100.00;100666.06;5125285;28;20028;-80
2023/07/31 05:43:12;;;;;;;20.35;5.65;;;;;;;15.85;100.00;100664.50;5126407;28;20041;-80
2023/07/31 05:45:37;;;;;;;17.73;5.15;;;;;;;15.83;100.00;100663.81;5109383;28;20036;-80
2023/07/31 05:48:03;;;;;;;13.10;4.20;;;;;;;15.81;100.00;100654.97;5120787;28;20047;-80
2023/07/31 05:50:30;;;;;;;17.60;5.10;;;;;;;15.81;100.00;100649.53;5135255;28;20008;-80
2023/07/31 05:52:55;;;;;;;19.00;5.25;;;;;;;15.80;100.00;100650.53;5128618;28;20087;-80
2023/07/31 05:55:20;;;;;;;14.07;4.85;;;;;;;15.79;100.00;100648.84;5120271;28;20038;-80
2023/07/31 05:57:46;;;;;;;18.85;4.70;;;;;;;15.78;100.00;100649.81;5114845;28;20028;-81
2023/07/31 06:00:12;;;;;;;17.60;4.57;;;;;;;15.78;100.00;100649.81;5120909;28;20032;-81
2023/07/31 06:02:38;;;;;;;15.35;4.60;;;;;;;15.76;100.00;100647.25;5121055;28;20036;-80
2023/07/31 06:05:05;;;;;;;13.73;4.30;;;;;;;15.73;100.00;100647.56;5131790;28;20024;-80
2023/07/31 06:07:31;;;;;;;13.07;3.72;;;;;;;15.74;100.00;100641.16;5124699;28;20023;-80
2023/07/31 06:10:01;;;;;;;14.93;4.10;;;;;;;15.74;100.00;100643.84;5122426;28;20069;-80
2023/07/31 06:12:27;;;;;;;14.07;4.30;;;;;;;15.76;100.00;100652.69;5125972;28;20024;-81
2023/07/31 06:14:52;;;;;;;9.23;3.33;;;;;;;15.73;100.00;100642.97;5115895;28;20055;-80
2023/07/31 06:17:18;;;;;;;9.48;3.20;;;;;;;15.72;100.00;100635.00;5126230;28;20020;-80
2023/07/31 06:19:43;;;;;;;11.63;4.03;;;;;;;15.72;100.00;100635.88;5118199;28;20123;-80
2023/07/31 06:22:08;;;;;;;14.10;4.20;;;;;;;15.73;100.00;100631.31;5120210;28;20028;-80
2023/07/31 06:24:34;;;;;;;11.88;4.07;;;;;;;15.74;100.00;100624.91;5124275;28;20028;-81
2023/07/31 06:26:59;;;;;;;13.90;4.13;;;;;;;15.76;100.00;100630.16;5109639;28;20051;-81
2023/07/31 06:29:25;;;;;;;13.00;3.80;;;;;;;15.76;100.00;100635.56;5125155;28;20043;-80
2023/07/31 06:31:50;;;;;;;13.05;4.38;;;;;;;15.79;100.00;100635.31;5123538;28;20012;-81
2023/07/31 06:34:15;;;;;;;13.93;4.30;;;;;;;15.79;100.00;100624.47;5126240;28;20032;-80
2023/07/31 06:36:40;;;;;;;15.45;4.80;;;;;;;15.82;100.00;100625.00;5133611;28;20027;-81
2023/07/31 06:39:06;;;;;;;18.48;5.35;;;;;;;15.84;100.00;100628.44;5125749;28;20028;-81
2023/07/31 06:41:31;;;;;;;12.82;4.05;;;;;;;15.85;100.00;100626.56;5128662;28;20039;-81
2023/07/31 06:43:56;;;;;;;17.83;4.78;;;;;;;15.86;100.00;100612.84;5121456;28;20015;-81
2023/07/31 06:46:22;;;;;;;15.15;5.30;;;;;;;15.89;100.00;100619.84;5116473;28;20040;-81
2023/07/31 06:48:47;;;;;;;15.40;4.68;;;;;;;15.89;100.00;100615.25;5129758;28;20010;-81
2023/07/31 06:51:12;;;;;;;16.45;4.35;;;;;;;15.90;100.00;100618.81;5111496;28;20115;-80
2023/07/31 06:53:38;;;;;;;14.93;4.70;;;;;;;15.89;100.00;100617.13;5127627;28;20027;-81
2023/07/31 06:56:04;;;;;;;17.60;5.05;;;;;;;15.90;100.00;100616.09;5122515;28;20059;-80
2023/07/31 06:58:29;;;;;;;15.98;5.63;;;;;;;15.91;100.00;100606.97;5115923;28;20095;-81
2023/07/31 07:00:55;;;;;;;15.15;4.85;;;;;;;15.91;100.00;100615.09;5127529;28;20027;-81
2023/07/31 07:03:20;;;;;;;14.27;4.38;;;;;;;15.93;100.00;100604.97;5120882;28;20092;-81
2023/07/31 07:05:45;;;;;;;11.20;4.30;;;;;;;15.94;100.00;100614.78;5121806;28;20062;-80
2023/07/31 07:08:11;;;;;;;13.02;4.82;;;;;;;15.98;100.00;100602.63;5124774;28;20484;-81
2023/07/31 07:10:37;;;;;;;14.80;4.45;;;;;;;16.00;100.00;100597.94;5124753;28;20058;-81
2023/07/31 07:13:02;;;;;;;13.50;4.47;;;;;;;16.05;100.00;100595.59;5126973;28;20031;-81
2023/07/31 07:15:28;;;;;;;9.50;3.78;;;;;;;16.06;100.00;100600.03;5128480;28;20033;-81
2023/07/31 07:17:54;;;;;;;12.52;4.50;;;;;;;16.07;100.00;100592.72;5116862;28;20028;-81
2023/07/31 07:20:20;;;;;;;12.45;4.35;;;;;;;16.10;100.00;100594.28;5124143;28;20042;-81
2023/07/31 07:22:45;;;;;;;14.77;4.10;;;;;;;16.08;100.00;100591.72;5106926;28;20058;-81
2023/07/31 07:25:11;;;;;;;12.95;4.50;;;;;;;16.10;100.00;100586.16;5116367;28;20024;-81
2023/07/31 07:27:36;;;;;;;12.75;4.18;;;;;;;16.09;100.00;100588.00;5119021;28;20020;-80
2023/07/31 07:30:02;;;;;;;14.60;4.85;;;;;;;16.12;100.00;100587.72;5113321;28;20028;-81
2023/07/31 07:32:27;;;;;;;13.73;4.25;;;;;;;16.10;100.00;100595.13;5126853;27;20035;-80
2023/07/31 07:34:52;;;;;;;16.98;4.93;;;;;;;16.12;100.00;100589.53;5127794;28;20036;-80
2023/07/31 07:37:18;;;;;;;17.98;5.20;;;;;;;16.12;100.00;100593.13;5127003;28;20031;-81
2023/07/31 07:39:44;;;;;;;15.10;5.22;;;;;;;16.11;100.00;100598.72;5125347;28;20060;-81
2023/07/31 07:42:10;;;;;;;16.40;5.20;;;;;;;16.10;100.00;100597.00;5128821;28;20027;-81
2023/07/31 07:44:35;;;;;;;17.10;5.65;;;;;;;16.10;100.00;100599.72;5117772;28;20043;-81
2023/07/31 07:47:00;;;;;;;17.35;5.88;;;;;;;16.15;100.00;100600.06;5128103;28;20081;-81
2023/07/31 07:49:26;;;;;;;18.85;5.47;;;;;;;16.15;100.00;100597.38;5125796;28;20027;-80
2023/07/31 07:51:51;;;;;;;14.90;5.25;;;;;;;16.15;100.00;100591.94;5124040;28;20032;-81
2023/07/31 07:54:16;;;;;;;19.33;6.18;;;;;;;16.18;100.00;100591.63;5114198;28;20028;-81
2023/07/31 07:56:42;;;;;;;17.38;5.95;;;;;;;16.17;100.00;100601.63;5115767;28;20052;-80
2023/07/31 07:59:07;;;;;;;16.13;5.57;;;;;;;16.16;100.00;100593.66;5117603;28;20050;-80
2023/07/31 08:01:33;;;;;;;18.73;6.28;;;;;;;16.16;100.00;100588.25;5117710;28;20063;-81
2023/07/31 08:03:58;;;;;;;17.00;6.82;;;;;;;16.18;100.00;100597.94;5117825;28;20051;-80
2023/07/31 08:06:24;;;;;;;17.05;6.03;;;;;;;16.18;100.00;100591.63;5119030;28;20047;-80
2023/07/31 08:08:49;;;;;;;18.75;5.90;;;;;;;16.19;100.00;100587.91;5114293;28;20020;-80
2023/07/31 08:11:15;;;;;;;17.33;6.43;;;;;;;16.22;100.00;100585.78;5117179;28;20028;-81
2023/07/31 08:13:40;;;;;;;16.83;5.68;;;;;;;16.23;100.00;100583.91;5115796;28;20401;-80
2023/07/31 08:16:05;;;;;;;15.73;6.07;;;;;;;16.25;100.00;100588.16;5123574;28;20036;-80
2023/07/31 08:18:32;;;;;;;19.15;5.97;;;;;;;16.26;100.00;100586.28;5114958;28;20028;-81
2023/07/31 08:20:57;;;;;;;19.77;6.68;;;;;;;16.25;100.00;100582.75;5115220;28;20071;-80
2023/07/31 08:23:22;;;;;;;16.90;5.65;;;;;;;16.23;100.00;100590.16;5121065;28;20036;-80
2023/07/31 08:25:49;;;;;;;20.00;6.13;;;;;;;16.25;100.00;100590.00;5122156;28;20036;-81
2023/07/31 08:28:15;;;;;;;17.90;6.03;;;;;;;16.25;100.00;100587.28;5116320;28;20016;-81
2023/07/31 08:30:41;;;;;;;16.58;6.15;;;;;;;16.25;100.00;100590.00;5120041;28;20028;-81
2023/07/31 08:33:06;;;;;;;17.70;6.65;;;;;;;16.23;100.00;100584.75;5113879;28;20016;-81
2023/07/31 08:35:32;;;;;;;18.83;6.18;;;;;;;16.26;100.00;100572.75;5129982;28;20043;-81
2023/07/31 08:37:57;;;;;;;17.90;6.25;;;;;;;16.26;100.00;100583.59;5112761;28;20035;-80
2023/07/31 08:40:23;;;;;;;18.35;5.85;;;;;;;16.28;100.00;100580.72;5131020;28;20031;-79
2023/07/31 08:42:50;;;;;;;19.52;6.22;;;;;;;16.28;100.00;100576.13;5123681;28;20083;-79
2023/07/31 08:45:17;;;;;;;15.57;4.82;;;;;;;16.24;100.00;100582.91;5122991;28;20093;-79
2023/07/31 08:47:45;;;;;;;19.80;6.03;;;;;;;16.26;100.00;100578.16;5127772;28;20035;-80
2023/07/31 08:50:13;;;;;;;16.52;5.45;;;;;;;16.25;100.00;100577.31;5118664;28;20024;-80
2023/07/31 08:52:38;;;;;;;16.52;6.25;;;;;;;16.27;100.00;100568.16;5113310;28;20024;-79
2023/07/31 08:55:05;;;;;;;18.70;7.05;;;;;;;16.28;100.00;100575.28;5119676;28;20031;-80
2023/07/31 08:57:31;;;;;;;19.15;7.00;;;;;;;16.29;100.00;100569.72;5114042;28;20028;-80
2023/07/31 08:59:57;;;;;;;24.40;7.30;;;;;;;16.34;100.00;100580.94;5126118;28;20027;-80
2023/07/31 09:02:26;;;;;;;20.02;7.15;;;;;;;16.36;100.00;100576.22;5126491;28;20042;-80
2023/07/31 09:04:52;;;;;;;18.13;6.15;;;;;;;16.39;100.00;100566.91;5124038;28;20063;-80
2023/07/31 09:07:17;;;;;;;17.95;6.72;;;;;;;16.41;100.00;100571.19;5111252;28;20023;-80
2023/07/31 09:09:43;;;;;;;19.55;6.88;;;;;;;16.44;100.00;100570.00;5113093;28;20040;-79
2023/07/31 09:12:08;;;;;;;24.85;6.65;;;;;;;16.47;100.00;100574.25;5115979;28;20039;-80
2023/07/31 09:14:34;;;;;;;20.50;6.53;;;;;;;16.49;100.00;100574.97;5112597;28;20061;-79
2023/07/31 09:16:59;;;;;;;18.42;6.25;;;;;;;16.50;100.00;100568.50;5125049;28;20027;-79
2023/07/31 09:19:37;;;;;;;18.02;6.25;;;;;;;16.51;100.00;100571.06;5120191;27;20032;-80
2023/07/31 09:22:03;;;;;;;18.92;7.32;;;;;;;16.54;100.00;100561.75;5115277;28;20444;-79
2023/07/31 09:24:30;;;;;;;20.20;7.20;;;;;;;16.54;100.00;100559.88;5126083;28;20049;-79
2023/07/31 09:26:56;;;;;;;22.00;6.97;;;;;;;16.57;100.00;100566.88;5126839;28;20027;-79
2023/07/31 09:29:23;;;;;;;19.08;7.00;;;;;;;16.59;100.00;100568.41;5117619;28;20035;-79
2023/07/31 09:31:48;;;;;;;18.92;6.80;;;;;;;16.62;100.00;100569.09;5125905;28;20024;-79
2023/07/31 09:34:13;;;;;;;17.38;5.95;;;;;;;16.66;100.00;100556.94;5128573;28;20035;-80
2023/07/31 09:36:44;;;;;;;18.30;5.97;;;;;;;16.68;100.00;100554.91;5132806;28;20027;-79
2023/07/31 09:39:11;;;;;;;19.42;6.53;;;;;;;16.71;100.00;100560.88;5121061;28;20028;-79
2023/07/31 09:41:38;;;;;;;18.45;6.30;;;;;;;16.75;100.00;100558.66;5134382;28;20020;-79
2023/07/31 09:44:04;;;;;;;17.38;6.28;;;;;;;16.77;100.00;100554.78;5125723;28;20449;-79
2023/07/31 09:46:30;;;;;;;19.13;5.88;;;;;;;16.75;100.00;100551.41;5120677;28;20043;-80
2023/07/31 09:49:09;;;;;;;16.85;5.80;;;;;;;16.79;100.00;100551.91;5123448;28;20038;-79
2023/07/31 09:51:39;;;;;;;19.25;6.28;;;;;;;16.81;100.00;100559.91;5130501;28;20052;-80
2023/07/31 09:54:15;;;;;;;17.52;5.70;;;;;;;16.83;100.00;100553.31;5133166;28;20083;-80
2023/07/31 09:56:44;;;;;;;17.95;5.55;;;;;;;16.85;100.00;100545.00;5120096;28;20015;-80
2023/07/31 09:59:12;;;;;;;17.05;5.55;;;;;;;16.87;100.00;100548.41;5123292;28;20114;-80
2023/07/31 10:01:41;;;;;;;17.23;6.88;;;;;;;16.89;100.00;100546.41;5131592;28;20024;-80
2023/07/31 10:04:09;;;;;;;18.33;5.80;;;;;;;16.92;100.00;100543.38;5126092;28;20016;-80
2023/07/31 10:06:35;;;;;;;19.67;6.13;;;;;;;16.94;100.00;100544.06;5119569;28;20027;-80
2023/07/31 10:09:08;;;;;;;18.48;5.68;;;;;;;16.98;100.00;100537.28;5128319;28;20043;-80
2023/07/31 10:11:41;;;;;;;17.58;5.32;;;;;;;17.02;100.00;100533.25;5118669;28;20040;-80
2023/07/31 10:14:07;;;;;;;17.95;5.30;;;;;;;17.10;100.00;100529.72;5122571;28;20020;-80
2023/07/31 10:16:35;;;;;;;15.88;4.93;;;;;;;17.16;100.00;100528.22;5124519;28;20028;-80
2023/07/31 10:19:01;;;;;;;15.60;5.15;;;;;;;17.22;100.00;100527.53;5131031;28;20106;-80
2023/07/31 10:21:27;;;;;;;15.93;5.30;;;;;;;17.26;100.00;100528.94;5118424;28;20016;-80
2023/07/31 10:23:55;;;;;;;18.45;5.05;;;;;;;17.29;100.00;100534.03;5118107;28;20118;-80
2023/07/31 10:26:23;;;;;;;19.90;5.60;;;;;;;17.35;100.00;100532.53;5139859;27;20019;-80
2023/07/31 10:28:51;;;;;;;17.63;5.47;;;;;;;17.41;100.00;100534.56;5132277;28;20047;-80
2023/07/31 10:31:17;;;;;;;16.60;5.15;;;;;;;17.42;100.00;100539.00;5120808;28;20024;-80
2023/07/31 10:33:43;;;;;;;16.30;5.07;;;;;;;17.43;100.00;100533.41;5125566;28;20024;-80
2023/07/31 10:36:19;;;;;;;15.35;4.78;;;;;;;17.48;100.00;100538.34;5122953;28;20071;-80
2023/07/31 10:38:46;;;;;;;15.57;5.03;;;;;;;17.50;100.00;100541.75;5127707;28;20032;-80
2023/07/31 10:41:11;;;;;;;15.25;4.75;;;;;;;17.55;100.00;100535.81;5128663;28;20036;-80
2023/07/31 10:43:38;;;;;;;21.52;5.35;;;;;;;17.55;100.00;100546.69;5136554;28;20035;-80
2023/07/31 10:46:13;;;;;;;16.13;5.20;;;;;;;17.59;100.00;100539.91;5116567;28;20134;-79
2023/07/31 10:48:43;;;;;;;15.20;5.35;;;;;;;17.63;100.00;100550.28;5118505;28;20016;-79
2023/07/31 10:51:11;;;;;;;17.10;5.85;;;;;;;17.64;100.00;100535.69;5129153;28;20039;-79
2023/07/31 10:53:38;;;;;;;14.90;5.47;;;;;;;17.67;100.00;100539.06;5118447;28;20036;-79
2023/07/31 10:56:08;;;;;;;14.88;4.80;;;;;;;17.67;100.00;100539.91;5122387;28;20080;-79
2023/07/31 10:58:34;;;;;;;15.88;5.65;;;;;;;17.67;100.00;100537.19;5119915;28;20024;-79
2023/07/31 11:01:05;;;;;;;15.80;5.30;;;;;;;17.69;100.00;100531.59;5115294;28;20027;-81
2023/07/31 11:03:45;;;;;;;14.07;4.60;;;;;;;17.73;100.00;100527.53;5106617;28;20176;-81
2023/07/31 11:06:11;;;;;;;14.43;5.00;;;;;;;17.78;100.00;100531.44;5084444;28;20023;-82